sensor_id;sensor_type;location;lat;lon;timestamp;pressure;altitude;pressure_sealevel;temperature;humidity
46303;BME280;32029;51.358;5.628;2023-08-17T00:00:39;101648.69;;;23.93;67.97
46303;BME280;32029;51.358;5.628;2023-08-17T00:03:06;101613.31;;;23.70;69.09
46303;BME280;32029;51.358;5.628;2023-08-17T00:05:33;101645.22;;;23.86;69.74
46303;BME280;32029;51.358;5.628;2023-08-17T00:08:00;101657.03;;;23.88;70.55
46303;BME280;32029;51.358;5.628;2023-08-17T00:10:28;101638.88;;;23.74;70.03
46303;BME280;32029;51.358;5.628;2023-08-17T00:12:55;101637.41;;;23.71;70.20
46303;BME280;32029;51.358;5.628;2023-08-17T00:15:23;101641.00;;;23.67;70.22
46303;BME280;32029;51.358;5.628;2023-08-17T00:17:51;101643.59;;;23.57;70.44
46303;BME280;32029;51.358;5.628;2023-08-17T00:20:17;101667.03;;;23.67;70.41
46303;BME280;32029;51.358;5.628;2023-08-17T00:22:44;101642.41;;;23.53;70.38
46303;BME280;32029;51.358;5.628;2023-08-17T00:25:11;101610.31;;;23.27;70.35
46303;BME280;32029;51.358;5.628;2023-08-17T00:27:37;101598.19;;;23.21;70.65
46303;BME280;32029;51.358;5.628;2023-08-17T00:30:04;101643.16;;;23.48;70.52
46303;BME280;32029;51.358;5.628;2023-08-17T00:32:31;101654.34;;;23.48;70.98
46303;BME280;32029;51.358;5.628;2023-08-17T00:34:59;101636.78;;;23.36;70.58
46303;BME280;32029;51.358;5.628;2023-08-17T00:37:26;101658.19;;;23.42;70.85
46303;BME280;32029;51.358;5.628;2023-08-17T00:39:52;101664.28;;;23.39;71.02
46303;BME280;32029;51.358;5.628;2023-08-17T00:42:20;101663.94;;;23.35;71.12
46303;BME280;32029;51.358;5.628;2023-08-17T00:44:47;101663.09;;;23.35;71.12
46303;BME280;32029;51.358;5.628;2023-08-17T00:47:14;101629.47;;;23.18;71.72
46303;BME280;32029;51.358;5.628;2023-08-17T00:49:41;101660.22;;;23.30;71.42
46303;BME280;32029;51.358;5.628;2023-08-17T00:52:08;101589.09;;;22.85;71.33
46303;BME280;32029;51.358;5.628;2023-08-17T00:54:35;101624.72;;;23.02;71.84
46303;BME280;32029;51.358;5.628;2023-08-17T00:57:03;101663.16;;;23.23;71.84
46303;BME280;32029;51.358;5.628;2023-08-17T00:59:32;101622.75;;;23.02;72.21
46303;BME280;32029;51.358;5.628;2023-08-17T01:02:01;101647.34;;;23.17;71.66
46303;BME280;32029;51.358;5.628;2023-08-17T01:04:28;101620.09;;;22.95;71.68
46303;BME280;32029;51.358;5.628;2023-08-17T01:06:54;101655.25;;;23.20;71.97
46303;BME280;32029;51.358;5.628;2023-08-17T01:09:22;101626.91;;;22.99;72.05
46303;BME280;32029;51.358;5.628;2023-08-17T01:11:55;101646.69;;;23.10;72.43
46303;BME280;32029;51.358;5.628;2023-08-17T01:17:43;101595.59;;;22.74;72.01
46303;BME280;32029;51.358;5.628;2023-08-17T01:20:13;101642.56;;;23.01;72.50
46303;BME280;32029;51.358;5.628;2023-08-17T01:22:41;101620.38;;;22.82;72.20
46303;BME280;32029;51.358;5.628;2023-08-17T01:25:11;101646.41;;;22.94;72.58
46303;BME280;32029;51.358;5.628;2023-08-17T01:27:43;101597.59;;;22.62;72.43
46303;BME280;32029;51.358;5.628;2023-08-17T01:30:13;101657.06;;;22.97;72.77
46303;BME280;32029;51.358;5.628;2023-08-17T01:33:09;101655.03;;;22.93;72.51
46303;BME280;32029;51.358;5.628;2023-08-17T01:35:45;101660.22;;;22.89;72.98
46303;BME280;32029;51.358;5.628;2023-08-17T01:38:17;101575.28;;;22.38;72.65
46303;BME280;32029;51.358;5.628;2023-08-17T01:40:45;101587.19;;;22.45;73.27
46303;BME280;32029;51.358;5.628;2023-08-17T01:43:14;101638.56;;;22.68;73.35
46303;BME280;32029;51.358;5.628;2023-08-17T01:45:44;101613.16;;;22.58;73.16
46303;BME280;32029;51.358;5.628;2023-08-17T01:48:11;101639.41;;;22.68;73.33
46303;BME280;32029;51.358;5.628;2023-08-17T01:50:38;101603.13;;;22.45;73.09
46303;BME280;32029;51.358;5.628;2023-08-17T01:53:05;101629.19;;;22.62;73.35
46303;BME280;32029;51.358;5.628;2023-08-17T01:55:31;101654.09;;;22.75;73.36
46303;BME280;32029;51.358;5.628;2023-08-17T01:57:59;101661.03;;;22.73;72.91
46303;BME280;32029;51.358;5.628;2023-08-17T02:00:27;101609.56;;;22.45;72.93
46303;BME280;32029;51.358;5.628;2023-08-17T02:02:54;101636.72;;;22.62;73.10
46303;BME280;32029;51.358;5.628;2023-08-17T02:05:21;101545.97;;;22.00;72.46
46303;BME280;32029;51.358;5.628;2023-08-17T02:07:48;101626.59;;;22.44;72.66
46303;BME280;32029;51.358;5.628;2023-08-17T02:10:16;101663.09;;;22.66;72.87
46303;BME280;32029;51.358;5.628;2023-08-17T02:12:43;101613.59;;;22.38;72.87
46303;BME280;32029;51.358;5.628;2023-08-17T02:15:09;101638.97;;;22.48;72.34
46303;BME280;32029;51.358;5.628;2023-08-17T02:17:36;101665.91;;;22.66;72.46
46303;BME280;32029;51.358;5.628;2023-08-17T02:20:04;101663.09;;;22.66;72.44
46303;BME280;32029;51.358;5.628;2023-08-17T02:22:32;101649.78;;;22.56;72.39
46303;BME280;32029;51.358;5.628;2023-08-17T02:24:59;101664.22;;;22.65;72.15
46303;BME280;32029;51.358;5.628;2023-08-17T02:27:26;101634.97;;;22.44;72.05
46303;BME280;32029;51.358;5.628;2023-08-17T02:29:52;101612.66;;;22.20;72.18
46303;BME280;32029;51.358;5.628;2023-08-17T02:32:19;101670.81;;;22.59;72.53
46303;BME280;32029;51.358;5.628;2023-08-17T02:34:48;101660.97;;;22.56;72.71
46303;BME280;32029;51.358;5.628;2023-08-17T02:37:15;101661.22;;;22.55;72.26
46303;BME280;32029;51.358;5.628;2023-08-17T02:39:43;101592.13;;;22.15;72.37
46303;BME280;32029;51.358;5.628;2023-08-17T02:42:12;101653.56;;;22.50;72.62
46303;BME280;32029;51.358;5.628;2023-08-17T02:44:40;101620.53;;;22.35;72.43
46303;BME280;32029;51.358;5.628;2023-08-17T02:47:10;101639.09;;;22.41;72.63
46303;BME280;32029;51.358;5.628;2023-08-17T02:49:37;101635.72;;;22.39;72.24
46303;BME280;32029;51.358;5.628;2023-08-17T02:52:05;101557.41;;;21.87;72.51
46303;BME280;32029;51.358;5.628;2023-08-17T02:54:31;101622.63;;;22.28;73.02
46303;BME280;32029;51.358;5.628;2023-08-17T02:56:59;101620.31;;;22.25;72.80
46303;BME280;32029;51.358;5.628;2023-08-17T02:59:26;101640.22;;;22.40;72.84
46303;BME280;32029;51.358;5.628;2023-08-17T03:01:53;101642.38;;;22.38;72.57
46303;BME280;32029;51.358;5.628;2023-08-17T03:04:21;101590.31;;;22.09;72.96
46303;BME280;32029;51.358;5.628;2023-08-17T03:06:49;101623.09;;;22.25;72.96
46303;BME280;32029;51.358;5.628;2023-08-17T03:09:17;101614.25;;;22.16;72.83
46303;BME280;32029;51.358;5.628;2023-08-17T03:11:43;101632.81;;;22.22;73.25
46303;BME280;32029;51.358;5.628;2023-08-17T03:14:10;101644.72;;;22.30;72.70
46303;BME280;32029;51.358;5.628;2023-08-17T03:16:38;101602.44;;;22.02;72.99
46303;BME280;32029;51.358;5.628;2023-08-17T03:19:06;101620.44;;;22.18;73.36
46303;BME280;32029;51.358;5.628;2023-08-17T03:21:34;101631.00;;;22.28;72.88
46303;BME280;32029;51.358;5.628;2023-08-17T03:24:00;101603.16;;;22.10;73.06
46303;BME280;32029;51.358;5.628;2023-08-17T03:26:27;101631.50;;;22.25;72.84
46303;BME280;32029;51.358;5.628;2023-08-17T03:28:54;101627.84;;;22.24;73.17
46303;BME280;32029;51.358;5.628;2023-08-17T03:31:21;101626.38;;;22.22;73.46
46303;BME280;32029;51.358;5.628;2023-08-17T03:33:48;101617.41;;;22.20;73.32
46303;BME280;32029;51.358;5.628;2023-08-17T03:36:15;101576.47;;;21.90;73.63
46303;BME280;32029;51.358;5.628;2023-08-17T03:38:42;101596.50;;;21.99;73.09
46303;BME280;32029;51.358;5.628;2023-08-17T03:41:09;101596.75;;;21.97;73.73
46303;BME280;32029;51.358;5.628;2023-08-17T03:43:35;101620.69;;;22.05;73.74
46303;BME280;32029;51.358;5.628;2023-08-17T03:46:04;101632.56;;;22.12;73.68
46303;BME280;32029;51.358;5.628;2023-08-17T03:48:30;101626.63;;;22.09;73.74
46303;BME280;32029;51.358;5.628;2023-08-17T03:50:57;101600.50;;;21.91;73.86
46303;BME280;32029;51.358;5.628;2023-08-17T03:53:24;101580.75;;;21.81;73.84
46303;BME280;32029;51.358;5.628;2023-08-17T03:55:50;101606.09;;;21.91;73.70
46303;BME280;32029;51.358;5.628;2023-08-17T03:58:18;101618.25;;;21.97;73.97
46303;BME280;32029;51.358;5.628;2023-08-17T04:00:51;101637.06;;;22.01;73.68
46303;BME280;32029;51.358;5.628;2023-08-17T04:03:19;101631.50;;;22.01;74.03
46303;BME280;32029;51.358;5.628;2023-08-17T04:05:46;101601.50;;;21.73;73.93
46303;BME280;32029;51.358;5.628;2023-08-17T04:08:13;101634.41;;;21.95;74.08
46303;BME280;32029;51.358;5.628;2023-08-17T04:10:40;101625.91;;;21.90;74.16
46303;BME280;32029;51.358;5.628;2023-08-17T04:13:07;101591.53;;;21.66;73.97
46303;BME280;32029;51.358;5.628;2023-08-17T04:15:34;101656.00;;;21.99;74.04
46303;BME280;32029;51.358;5.628;2023-08-17T04:18:00;101603.69;;;21.71;73.96
46303;BME280;32029;51.358;5.628;2023-08-17T04:20:28;101652.63;;;21.97;74.38
46303;BME280;32029;51.358;5.628;2023-08-17T04:22:55;101589.97;;;21.58;74.43
46303;BME280;32029;51.358;5.628;2023-08-17T04:25:22;101595.19;;;21.55;74.45
46303;BME280;32029;51.358;5.628;2023-08-17T04:27:48;101631.50;;;21.78;74.71
46303;BME280;32029;51.358;5.628;2023-08-17T04:30:15;101590.69;;;21.53;74.75
46303;BME280;32029;51.358;5.628;2023-08-17T04:32:43;101654.69;;;21.90;74.80
46303;BME280;32029;51.358;5.628;2023-08-17T04:35:10;101595.06;;;21.49;74.45
46303;BME280;32029;51.358;5.628;2023-08-17T04:37:39;101636.97;;;21.73;74.05
46303;BME280;32029;51.358;5.628;2023-08-17T04:40:06;101660.53;;;21.89;74.41
46303;BME280;32029;51.358;5.628;2023-08-17T04:42:33;101655.06;;;21.82;74.84
46303;BME280;32029;51.358;5.628;2023-08-17T04:44:59;101663.53;;;21.87;75.00
46303;BME280;32029;51.358;5.628;2023-08-17T04:47:26;101641.09;;;21.70;74.81
46303;BME280;32029;51.358;5.628;2023-08-17T04:49:53;101620.91;;;21.57;74.88
46303;BME280;32029;51.358;5.628;2023-08-17T04:52:21;101653.84;;;21.78;75.48
46303;BME280;32029;51.358;5.628;2023-08-17T04:54:50;101658.94;;;21.81;75.12
46303;BME280;32029;51.358;5.628;2023-08-17T04:57:19;101668.03;;;21.88;75.12
46303;BME280;32029;51.358;5.628;2023-08-17T04:59:46;101670.59;;;21.90;75.25
46303;BME280;32029;51.358;5.628;2023-08-17T05:02:12;101666.13;;;21.89;75.28
46303;BME280;32029;51.358;5.628;2023-08-17T05:04:39;101670.34;;;21.91;75.35
46303;BME280;32029;51.358;5.628;2023-08-17T05:07:06;101629.44;;;21.73;75.60
46303;BME280;32029;51.358;5.628;2023-08-17T05:09:33;101638.66;;;21.74;75.02
46303;BME280;32029;51.358;5.628;2023-08-17T05:11:59;101658.22;;;21.86;75.50
46303;BME280;32029;51.358;5.628;2023-08-17T05:14:26;101637.94;;;21.78;75.33
46303;BME280;32029;51.358;5.628;2023-08-17T05:16:53;101670.72;;;21.95;75.72
46303;BME280;32029;51.358;5.628;2023-08-17T05:19:21;101644.25;;;21.86;75.33
46303;BME280;32029;51.358;5.628;2023-08-17T05:21:47;101638.03;;;21.84;75.28
46303;BME280;32029;51.358;5.628;2023-08-17T05:24:17;101631.50;;;21.78;75.11
46303;BME280;32029;51.358;5.628;2023-08-17T05:26:43;101671.44;;;22.02;75.64
46303;BME280;32029;51.358;5.628;2023-08-17T05:29:10;101670.13;;;22.05;75.85
46303;BME280;32029;51.358;5.628;2023-08-17T05:31:37;101668.91;;;22.00;75.41
46303;BME280;32029;51.358;5.628;2023-08-17T05:34:03;101661.84;;;22.10;75.54
46303;BME280;32029;51.358;5.628;2023-08-17T05:36:30;101672.56;;;22.13;75.32
46303;BME280;32029;51.358;5.628;2023-08-17T05:38:58;101667.84;;;22.13;75.30
46303;BME280;32029;51.358;5.628;2023-08-17T05:41:25;101598.47;;;21.75;75.43
46303;BME280;32029;51.358;5.628;2023-08-17T05:43:52;101656.41;;;22.15;75.42
46303;BME280;32029;51.358;5.628;2023-08-17T05:46:19;101664.66;;;22.21;75.09
46303;BME280;32029;51.358;5.628;2023-08-17T05:48:47;101647.88;;;22.10;75.10
46303;BME280;32029;51.358;5.628;2023-08-17T05:51:15;101662.13;;;22.20;74.80
46303;BME280;32029;51.358;5.628;2023-08-17T05:53:41;101608.41;;;21.94;75.21
46303;BME280;32029;51.358;5.628;2023-08-17T05:56:09;101662.34;;;22.30;75.13
46303;BME280;32029;51.358;5.628;2023-08-17T05:58:36;101665.97;;;22.31;74.99
46303;BME280;32029;51.358;5.628;2023-08-17T06:01:10;101674.72;;;22.34;74.67
46303;BME280;32029;51.358;5.628;2023-08-17T06:03:37;101654.34;;;22.22;74.52
46303;BME280;32029;51.358;5.628;2023-08-17T06:06:04;101634.31;;;22.13;74.30
46303;BME280;32029;51.358;5.628;2023-08-17T06:08:34;101655.91;;;22.30;74.67
46303;BME280;32029;51.358;5.628;2023-08-17T06:11:00;101681.41;;;22.45;74.82
46303;BME280;32029;51.358;5.628;2023-08-17T06:13:27;101685.16;;;22.50;75.05
46303;BME280;32029;51.358;5.628;2023-08-17T06:15:56;101632.06;;;22.27;74.09
46303;BME280;32029;51.358;5.628;2023-08-17T06:18:23;101664.16;;;22.48;74.19
46303;BME280;32029;51.358;5.628;2023-08-17T06:20:54;101686.38;;;22.66;73.62
46303;BME280;32029;51.358;5.628;2023-08-17T06:23:23;101687.78;;;22.69;73.91
46303;BME280;32029;51.358;5.628;2023-08-17T06:25:50;101674.56;;;22.64;73.49
46303;BME280;32029;51.358;5.628;2023-08-17T06:28:17;101669.81;;;22.65;73.75
46303;BME280;32029;51.358;5.628;2023-08-17T06:30:44;101694.72;;;22.78;73.90
46303;BME280;32029;51.358;5.628;2023-08-17T06:33:10;101680.03;;;22.71;73.90
46303;BME280;32029;51.358;5.628;2023-08-17T06:35:37;101614.56;;;22.43;73.57
46303;BME280;32029;51.358;5.628;2023-08-17T06:38:05;101688.13;;;22.84;73.77
46303;BME280;32029;51.358;5.628;2023-08-17T06:40:32;101637.75;;;22.56;73.72
46303;BME280;32029;51.358;5.628;2023-08-17T06:42:59;101662.13;;;22.72;73.73
46303;BME280;32029;51.358;5.628;2023-08-17T06:45:26;101620.25;;;22.48;73.50
46303;BME280;32029;51.358;5.628;2023-08-17T06:47:52;101683.00;;;22.93;73.76
46303;BME280;32029;51.358;5.628;2023-08-17T06:50:19;101692.84;;;22.95;73.54
46303;BME280;32029;51.358;5.628;2023-08-17T06:52:46;101617.56;;;22.54;73.01
46303;BME280;32029;51.358;5.628;2023-08-17T06:55:12;101644.59;;;22.77;73.35
46303;BME280;32029;51.358;5.628;2023-08-17T06:57:40;101647.75;;;22.80;73.34
46303;BME280;32029;51.358;5.628;2023-08-17T07:00:07;101627.38;;;22.68;73.56
46303;BME280;32029;51.358;5.628;2023-08-17T07:02:34;101669.63;;;22.95;73.77
46303;BME280;32029;51.358;5.628;2023-08-17T07:05:01;101631.44;;;22.77;73.41
46303;BME280;32029;51.358;5.628;2023-08-17T07:07:27;101672.72;;;23.10;73.10
46303;BME280;32029;51.358;5.628;2023-08-17T07:09:54;101670.16;;;23.09;72.95
46303;BME280;32029;51.358;5.628;2023-08-17T07:12:21;101688.44;;;23.28;73.33
46303;BME280;32029;51.358;5.628;2023-08-17T07:14:47;101686.59;;;23.34;73.12
46303;BME280;32029;51.358;5.628;2023-08-17T07:17:14;101683.63;;;23.40;72.67
46303;BME280;32029;51.358;5.628;2023-08-17T07:19:42;101690.44;;;23.44;72.72
46303;BME280;32029;51.358;5.628;2023-08-17T07:22:10;101652.41;;;23.32;72.48
46303;BME280;32029;51.358;5.628;2023-08-17T07:24:37;101688.06;;;23.53;72.61
46303;BME280;32029;51.358;5.628;2023-08-17T07:27:05;101694.53;;;23.54;71.63
46303;BME280;32029;51.358;5.628;2023-08-17T07:29:33;101632.53;;;23.16;71.91
46303;BME280;32029;51.358;5.628;2023-08-17T07:32:00;101692.22;;;23.51;72.13
46303;BME280;32029;51.358;5.628;2023-08-17T07:34:29;101679.25;;;23.44;72.52
46303;BME280;32029;51.358;5.628;2023-08-17T07:36:57;101665.31;;;23.33;72.58
46303;BME280;32029;51.358;5.628;2023-08-17T07:39:24;101661.56;;;23.27;72.54
46303;BME280;32029;51.358;5.628;2023-08-17T07:41:52;101693.91;;;23.52;73.09
46303;BME280;32029;51.358;5.628;2023-08-17T07:44:21;101701.81;;;23.55;72.80
46303;BME280;32029;51.358;5.628;2023-08-17T07:46:48;101699.28;;;23.53;72.21
46303;BME280;32029;51.358;5.628;2023-08-17T07:49:14;101685.56;;;23.40;72.23
46303;BME280;32029;51.358;5.628;2023-08-17T07:51:41;101679.63;;;23.36;72.52
46303;BME280;32029;51.358;5.628;2023-08-17T07:54:09;101707.06;;;23.51;71.98
46303;BME280;32029;51.358;5.628;2023-08-17T07:56:36;101707.34;;;23.50;71.89
46303;BME280;32029;51.358;5.628;2023-08-17T07:59:02;101692.78;;;23.36;72.24
46303;BME280;32029;51.358;5.628;2023-08-17T08:01:29;101650.56;;;23.09;72.21
46303;BME280;32029;51.358;5.628;2023-08-17T08:03:57;101659.31;;;23.12;72.60
46303;BME280;32029;51.358;5.628;2023-08-17T08:06:25;101671.81;;;23.21;72.76
46303;BME280;32029;51.358;5.628;2023-08-17T08:08:53;101710.53;;;23.41;72.60
46303;BME280;32029;51.358;5.628;2023-08-17T08:11:21;101681.22;;;23.15;72.38
46303;BME280;32029;51.358;5.628;2023-08-17T08:14:07;101647.47;;;22.93;72.13
46303;BME280;32029;51.358;5.628;2023-08-17T08:16:34;101717.22;;;23.40;72.23
46303;BME280;32029;51.358;5.628;2023-08-17T08:19:02;101688.22;;;23.30;72.77
46303;BME280;32029;51.358;5.628;2023-08-17T08:21:30;101711.63;;;23.40;72.04
46303;BME280;32029;51.358;5.628;2023-08-17T08:23:57;101697.88;;;23.39;73.03
46303;BME280;32029;51.358;5.628;2023-08-17T08:26:25;101685.06;;;23.26;73.00
46303;BME280;32029;51.358;5.628;2023-08-17T08:28:53;101704.34;;;23.39;72.94
46303;BME280;32029;51.358;5.628;2023-08-17T08:31:19;101701.19;;;23.36;73.34
46303;BME280;32029;51.358;5.628;2023-08-17T08:33:46;101709.28;;;23.49;72.59
46303;BME280;32029;51.358;5.628;2023-08-17T08:36:13;101681.25;;;23.32;72.93
46303;BME280;32029;51.358;5.628;2023-08-17T08:38:40;101708.44;;;23.48;73.11
46303;BME280;32029;51.358;5.628;2023-08-17T08:41:09;101703.44;;;23.51;72.81
46303;BME280;32029;51.358;5.628;2023-08-17T08:43:35;101699.50;;;23.52;72.70
46303;BME280;32029;51.358;5.628;2023-08-17T08:46:04;101711.19;;;23.60;72.35
46303;BME280;32029;51.358;5.628;2023-08-17T08:48:32;101710.28;;;23.60;72.42
46303;BME280;32029;51.358;5.628;2023-08-17T08:51:03;101687.97;;;23.48;72.15
46303;BME280;32029;51.358;5.628;2023-08-17T08:53:38;101693.41;;;23.55;72.25
46303;BME280;32029;51.358;5.628;2023-08-17T08:56:10;101702.50;;;23.62;71.89
46303;BME280;32029;51.358;5.628;2023-08-17T08:58:38;101698.00;;;23.61;72.19
46303;BME280;32029;51.358;5.628;2023-08-17T09:01:07;101640.00;;;23.28;72.07
46303;BME280;32029;51.358;5.628;2023-08-17T09:03:35;101680.25;;;23.55;71.87
46303;BME280;32029;51.358;5.628;2023-08-17T09:06:04;101675.06;;;23.47;71.98
46303;BME280;32029;51.358;5.628;2023-08-17T09:08:33;101688.50;;;23.62;72.31
46303;BME280;32029;51.358;5.628;2023-08-17T09:11:00;101667.78;;;23.46;72.02
46303;BME280;32029;51.358;5.628;2023-08-17T09:13:29;101689.22;;;23.69;72.15
46303;BME280;32029;51.358;5.628;2023-08-17T09:15:58;101676.19;;;23.63;71.91
46303;BME280;32029;51.358;5.628;2023-08-17T09:18:27;101656.75;;;23.56;71.58
46303;BME280;32029;51.358;5.628;2023-08-17T09:20:54;101662.13;;;23.75;71.42
46303;BME280;32029;51.358;5.628;2023-08-17T09:23:21;101683.16;;;23.94;71.20
46303;BME280;32029;51.358;5.628;2023-08-17T09:25:49;101692.00;;;24.03;70.95
46303;BME280;32029;51.358;5.628;2023-08-17T09:28:19;101662.97;;;23.92;71.45
46303;BME280;32029;51.358;5.628;2023-08-17T09:31:01;101650.31;;;23.89;70.80
46303;BME280;32029;51.358;5.628;2023-08-17T09:33:32;101608.81;;;23.69;70.33
46303;BME280;32029;51.358;5.628;2023-08-17T09:36:03;101687.63;;;24.29;70.79
46303;BME280;32029;51.358;5.628;2023-08-17T09:38:30;101692.31;;;24.40;70.95
46303;BME280;32029;51.358;5.628;2023-08-17T09:40:58;101685.13;;;24.49;69.63
46303;BME280;32029;51.358;5.628;2023-08-17T09:43:26;101683.84;;;24.57;69.73
46303;BME280;32029;51.358;5.628;2023-08-17T09:45:57;101684.16;;;24.60;69.18
46303;BME280;32029;51.358;5.628;2023-08-17T09:48:25;101670.53;;;24.47;69.00
46303;BME280;32029;51.358;5.628;2023-08-17T09:50:56;101651.34;;;24.39;68.90
46303;BME280;32029;51.358;5.628;2023-08-17T09:53:24;101643.69;;;24.34;68.79
46303;BME280;32029;51.358;5.628;2023-08-17T09:55:53;101680.00;;;24.63;69.21
46303;BME280;32029;51.358;5.628;2023-08-17T09:58:21;101675.06;;;24.70;69.31
46303;BME280;32029;51.358;5.628;2023-08-17T10:00:50;101677.41;;;24.78;69.24
46303;BME280;32029;51.358;5.628;2023-08-17T10:03:19;101651.22;;;24.73;68.60
46303;BME280;32029;51.358;5.628;2023-08-17T10:06:05;101664.06;;;24.90;68.48
46303;BME280;32029;51.358;5.628;2023-08-17T10:08:47;101669.84;;;25.06;68.73
46303;BME280;32029;51.358;5.628;2023-08-17T10:11:19;101678.69;;;25.14;67.74
46303;BME280;32029;51.358;5.628;2023-08-17T10:13:52;101674.81;;;25.21;67.71
46303;BME280;32029;51.358;5.628;2023-08-17T10:16:28;101629.94;;;25.04;67.87
46303;BME280;32029;51.358;5.628;2023-08-17T10:21:51;101666.09;;;25.49;67.61
46303;BME280;32029;51.358;5.628;2023-08-17T10:24:21;101641.03;;;25.42;66.91
46303;BME280;32029;51.358;5.628;2023-08-17T10:26:51;101628.09;;;25.41;66.74
46303;BME280;32029;51.358;5.628;2023-08-17T10:29:20;101595.94;;;25.27;66.12
46303;BME280;32029;51.358;5.628;2023-08-17T10:31:52;101594.13;;;25.43;65.69
46303;BME280;32029;51.358;5.628;2023-08-17T10:34:21;101539.13;;;25.15;65.99
46303;BME280;32029;51.358;5.628;2023-08-17T10:36:50;101567.19;;;25.47;66.17
46303;BME280;32029;51.358;5.628;2023-08-17T10:39:20;101627.97;;;25.90;66.24
46303;BME280;32029;51.358;5.628;2023-08-17T10:41:48;101643.28;;;26.10;66.15
46303;BME280;32029;51.358;5.628;2023-08-17T10:44:18;101650.09;;;26.24;65.40
46303;BME280;32029;51.358;5.628;2023-08-17T10:46:46;101618.56;;;26.17;65.62
46303;BME280;32029;51.358;5.628;2023-08-17T10:49:40;101641.28;;;26.53;64.95
46303;BME280;32029;51.358;5.628;2023-08-17T10:52:11;101653.16;;;26.65;64.50
46303;BME280;32029;51.358;5.628;2023-08-17T10:54:41;101638.81;;;26.67;63.87
46303;BME280;32029;51.358;5.628;2023-08-17T10:57:32;101664.47;;;26.80;64.55
46303;BME280;32029;51.358;5.628;2023-08-17T11:02:38;101654.41;;;27.00;63.63
46303;BME280;32029;51.358;5.628;2023-08-17T11:05:06;101639.75;;;26.93;63.43
46303;BME280;32029;51.358;5.628;2023-08-17T11:07:42;101656.09;;;27.01;63.27
46303;BME280;32029;51.358;5.628;2023-08-17T11:10:30;101652.72;;;27.04;63.43
46303;BME280;32029;51.358;5.628;2023-08-17T11:12:59;101651.31;;;27.01;63.95
46303;BME280;32029;51.358;5.628;2023-08-17T11:15:41;101626.50;;;26.93;63.64
46303;BME280;32029;51.358;5.628;2023-08-17T11:18:11;101617.22;;;26.98;62.93
46303;BME280;32029;51.358;5.628;2023-08-17T11:20:41;101604.78;;;26.83;63.33
46303;BME280;32029;51.358;5.628;2023-08-17T11:23:10;101666.31;;;27.32;62.52
46303;BME280;32029;51.358;5.628;2023-08-17T11:25:37;101618.41;;;27.17;63.06
46303;BME280;32029;51.358;5.628;2023-08-17T11:28:08;101583.44;;;26.98;62.18
46303;BME280;32029;51.358;5.628;2023-08-17T11:30:37;101660.13;;;27.46;62.41
46303;BME280;32029;51.358;5.628;2023-08-17T11:33:06;101631.97;;;27.35;62.79
46303;BME280;32029;51.358;5.628;2023-08-17T11:35:35;101660.69;;;27.53;62.94
46303;BME280;32029;51.358;5.628;2023-08-17T11:38:03;101594.75;;;27.13;63.41
46303;BME280;32029;51.358;5.628;2023-08-17T11:40:33;101677.31;;;27.65;62.33
46303;BME280;32029;51.358;5.628;2023-08-17T11:43:01;101622.38;;;27.36;62.00
46303;BME280;32029;51.358;5.628;2023-08-17T11:45:29;101670.84;;;27.69;62.81
46303;BME280;32029;51.358;5.628;2023-08-17T11:47:57;101615.06;;;27.35;62.17
46303;BME280;32029;51.358;5.628;2023-08-17T11:50:25;101631.09;;;27.45;62.03
46303;BME280;32029;51.358;5.628;2023-08-17T11:52:53;101678.19;;;27.70;61.95
46303;BME280;32029;51.358;5.628;2023-08-17T11:55:21;101660.97;;;27.61;61.94
46303;BME280;32029;51.358;5.628;2023-08-17T11:57:51;101680.44;;;27.63;61.77
46303;BME280;32029;51.358;5.628;2023-08-17T12:00:20;101666.91;;;27.60;62.54
46303;BME280;32029;51.358;5.628;2023-08-17T12:02:49;101640.41;;;27.41;62.53
46303;BME280;32029;51.358;5.628;2023-08-17T12:05:22;101662.97;;;27.51;62.71
46303;BME280;32029;51.358;5.628;2023-08-17T12:07:53;101669.44;;;27.46;62.71
46303;BME280;32029;51.358;5.628;2023-08-17T12:10:21;101656.72;;;27.33;62.56
46303;BME280;32029;51.358;5.628;2023-08-17T12:12:50;101654.75;;;27.24;62.43
46303;BME280;32029;51.358;5.628;2023-08-17T12:15:18;101669.72;;;27.34;62.61
46303;BME280;32029;51.358;5.628;2023-08-17T12:17:48;101655.91;;;27.23;63.43
46303;BME280;32029;51.358;5.628;2023-08-17T12:20:17;101596.34;;;26.83;63.47
46303;BME280;32029;51.358;5.628;2023-08-17T12:22:48;101612.44;;;26.93;63.13
46303;BME280;32029;51.358;5.628;2023-08-17T12:25:16;101651.66;;;27.15;62.78
46303;BME280;32029;51.358;5.628;2023-08-17T12:27:46;101644.56;;;27.07;62.95
46303;BME280;32029;51.358;5.628;2023-08-17T12:30:25;101640.31;;;27.00;63.04
46303;BME280;32029;51.358;5.628;2023-08-17T12:32:54;101634.06;;;26.87;63.24
46303;BME280;32029;51.358;5.628;2023-08-17T12:35:21;101659.75;;;27.01;64.02
46303;BME280;32029;51.358;5.628;2023-08-17T12:37:52;101636.03;;;26.87;64.57
46303;BME280;32029;51.358;5.628;2023-08-17T12:40:21;101659.75;;;26.96;64.48
46303;BME280;32029;51.358;5.628;2023-08-17T12:42:49;101631.78;;;26.79;64.76
46303;BME280;32029;51.358;5.628;2023-08-17T12:45:16;101621.06;;;26.71;64.82
46303;BME280;32029;51.358;5.628;2023-08-17T12:47:44;101651.59;;;27.00;64.65
46303;BME280;32029;51.358;5.628;2023-08-17T12:50:12;101603.06;;;26.67;64.23
46303;BME280;32029;51.358;5.628;2023-08-17T12:52:41;101663.72;;;27.10;64.34
46303;BME280;32029;51.358;5.628;2023-08-17T12:55:09;101648.47;;;27.06;64.64
46303;BME280;32029;51.358;5.628;2023-08-17T12:57:37;101642.91;;;27.11;64.47
46303;BME280;32029;51.358;5.628;2023-08-17T13:00:05;101660.94;;;27.26;64.46
46303;BME280;32029;51.358;5.628;2023-08-17T13:02:33;101657.28;;;27.30;63.96
46303;BME280;32029;51.358;5.628;2023-08-17T13:05:01;101641.53;;;27.24;63.99